Time;durP1;ratioP1;P1;durP2;ratioP2;P2;SDS_P1;SDS_P2;PMS_P1;PMS_P2;Temp;Humidity;BMP_temperature;BMP_pressure;BME280_temperature;BME280_humidity;BME280_pressure;Samples;Min_cycle;Max_cycle;Signal;HPM_P1;HPM_P2
2022/07/14 00:00:48;;;;;;;;;;;;;;;;;;2141345;27;19923;-45
2022/07/14 00:01:49;;;;;;;;;;;;;;;;;;2141145;27;19997;-44
2022/07/14 00:02:50;;;;;;;;;;;;;;;;;;2141335;27;19923;-45
2022/07/14 00:03:51;;;;;;;;;;;;;;;;;;2141180;27;19922;-45
2022/07/14 00:04:52;;;;;;;;;;;;;;;;;;2141214;27;19922;-45
2022/07/14 00:05:53;;;;;;;;;;;;;;;;;;2141121;27;19970;-45
2022/07/14 00:06:54;;;;;;;;;;;;;;;;;;2141140;27;20402;-44
2022/07/14 00:07:55;;;;;;;;;;;;;;;;;;2140838;27;20025;-44
2022/07/14 00:08:56;;;;;;;;;;;;;;;;;;2140987;27;19923;-44
2022/07/14 00:09:56;;;;;;;;;;;;;;;;;;2141347;27;20009;-44
2022/07/14 00:10:57;;;;;;;;;;;;;;;;;;2140562;27;19927;-45
2022/07/14 00:11:58;;;;;;;;;;;;;;;;;;2132470;27;20311;-45
2022/07/14 00:12:59;;;;;;;;;;;;;;;;;;2132716;27;19927;-45
2022/07/14 00:14:00;;;;;;;;;;;;;;;;;;2132656;27;19964;-44
2022/07/14 00:15:01;;;;;;;;;;;;;;;;;;2132565;27;19923;-44
2022/07/14 00:16:02;;;;;;;;;;;;;;;;;;2132541;27;20013;-46
2022/07/14 00:17:03;;;;;;;;;;;;;;;;;;2132375;27;19930;-45
2022/07/14 00:18:03;;;;;;;;;;;;;;;;;;2132377;27;20002;-44
2022/07/14 00:19:05;;;;;;;;;;;;;;;;;;2132584;27;19954;-44
2022/07/14 00:20:05;;;;;;;;;;;;;;;;;;2132526;27;20017;-45
2022/07/14 00:21:06;;;;;;;;;;;;;;;;;;2132268;27;20013;-44
2022/07/14 00:22:08;;;;;;;;;;;;;;;;;;2132551;27;19969;-46
2022/07/14 00:23:09;;;;;;;;;;;;;;;;;;2132368;27;19933;-44
2022/07/14 00:24:11;;;;;;;;;;;;;;;;;;2132173;27;19934;-44
2022/07/14 00:25:12;;;;;;;;;;;;;;;;;;2132454;27;19992;-45
2022/07/14 00:26:13;;;;;;;;;;;;;;;;;;2132337;27;20403;-47
2022/07/14 00:27:14;;;;;;;;;;;;;;;;;;2132408;27;19930;-47
2022/07/14 00:28:15;;;;;;;;;;;;;;;;;;2132499;27;20380;-49
2022/07/14 00:29:16;;;;;;;;;;;;;;;;;;2132468;27;19930;-50
2022/07/14 00:30:17;;;;;;;;;;;;;;;;;;2132275;27;19923;-50
2022/07/14 00:31:18;;;;;;;;;;;;;;;;;;2132284;27;19923;-50
2022/07/14 00:32:19;;;;;;;;;;;;;;;;;;2132314;27;20002;-49
2022/07/14 00:33:20;;;;;;;;;;;;;;;;;;2132368;27;20283;-49
2022/07/14 00:34:20;;;;;;;;;;;;;;;;;;2132359;27;19924;-47
2022/07/14 00:35:22;;;;;;;;;;;;;;;;;;2132667;27;19975;-48
2022/07/14 00:36:22;;;;;;;;;;;;;;;;;;2132081;27;20013;-50
2022/07/14 00:37:24;;;;;;;;;;;;;;;;;;2132348;27;19923;-49
2022/07/14 00:38:24;;;;;;;;;;;;;;;;;;2132436;27;20171;-48
2022/07/14 00:39:26;;;;;;;;;;;;;;;;;;2132237;27;19923;-47
2022/07/14 00:40:27;;;;;;;;;;;;;;;;;;2132456;27;19976;-50
2022/07/14 00:41:28;;;;;;;;;;;;;;;;;;2132215;27;19931;-48
2022/07/14 00:42:28;;;;;;;;;;;;;;;;;;2132485;27;19964;-48
2022/07/14 00:43:29;;;;;;;;;;;;;;;;;;2132335;27;20272;-47
2022/07/14 00:44:31;;;;;;;;;;;;;;;;;;2132361;27;20381;-47
2022/07/14 00:45:32;;;;;;;;;;;;;;;;;;2132175;27;20051;-47
2022/07/14 00:46:32;;;;;;;;;;;;;;;;;;2132423;27;20017;-48
2022/07/14 00:47:34;;;;;;;;;;;;;;;;;;2132475;27;20265;-47
2022/07/14 00:48:34;;;;;;;;;;;;;;;;;;2132180;27;20001;-48
2022/07/14 00:49:36;;;;;;;;;;;;;;;;;;2132520;27;20320;-47
2022/07/14 00:50:41;;;;;;;;;;;;;;;;;;2132308;27;20029;-48
2022/07/14 00:51:42;;;;;;;;;;;;;;;;;;2132265;27;20013;-48
2022/07/14 00:52:43;;;;;;;;;;;;;;;;;;2132358;27;19923;-48
2022/07/14 00:53:44;;;;;;;;;;;;;;;;;;2132590;27;19929;-47
2022/07/14 00:54:44;;;;;;;;;;;;;;;;;;2132173;27;19923;-47
2022/07/14 00:55:45;;;;;;;;;;;;;;;;;;2132382;27;20336;-48
2022/07/14 00:56:46;;;;;;;;;;;;;;;;;;2132197;27;20257;-47
2022/07/14 00:57:47;;;;;;;;;;;;;;;;;;2132204;27;19962;-47
2022/07/14 00:58:48;;;;;;;;;;;;;;;;;;2132308;27;19972;-48
2022/07/14 00:59:49;;;;;;;;;;;;;;;;;;2132210;27;20409;-48
2022/07/14 01:00:50;;;;;;;;;;;;;;;;;;2132187;27;19953;-48
2022/07/14 01:01:51;;;;;;;;;;;;;;;;;;2132066;27;19953;-49
2022/07/14 01:02:52;;;;;;;;;;;;;;;;;;2132263;27;19968;-47
2022/07/14 01:03:54;;;;;;;;;;;;;;;;;;2132155;27;19933;-47
2022/07/14 01:04:54;;;;;;;;;;;;;;;;;;2139618;27;19996;-48
2022/07/14 01:05:56;;;;;;;;;;;;;;;;;;2140721;27;19923;-50
2022/07/14 01:06:57;;;;;;;;;;;;;;;;;;2140631;27;20450;-48
2022/07/14 01:07:58;;;;;;;;;;;;;;;;;;2140859;27;19971;-49
2022/07/14 01:08:58;;;;;;;;;;;;;;;;;;2140924;27;20013;-48
2022/07/14 01:09:59;;;;;;;;;;;;;;;;;;2140771;27;19927;-47
2022/07/14 01:11:00;;;;;;;;;;;;;;;;;;2139654;27;19922;-48
2022/07/14 01:12:01;;;;;;;;;;;;;;;;;;2132152;27;19923;-47
2022/07/14 01:13:02;;;;;;;;;;;;;;;;;;2132052;27;20367;-49
2022/07/14 01:14:03;;;;;;;;;;;;;;;;;;2132091;27;19929;-47
2022/07/14 01:15:04;;;;;;;;;;;;;;;;;;2132124;27;20355;-47
2022/07/14 01:16:05;;;;;;;;;;;;;;;;;;2131970;27;19927;-47
2022/07/14 01:17:06;;;;;;;;;;;;;;;;;;2132089;27;19923;-47
2022/07/14 01:18:07;;;;;;;;;;;;;;;;;;2132039;27;19979;-49
2022/07/14 01:19:09;;;;;;;;;;;;;;;;;;2132254;27;20036;-48
2022/07/14 01:20:10;;;;;;;;;;;;;;;;;;2132401;27;20009;-48
2022/07/14 01:21:11;;;;;;;;;;;;;;;;;;2132065;27;19962;-46
2022/07/14 01:22:12;;;;;;;;;;;;;;;;;;2132000;27;19965;-46
2022/07/14 01:23:13;;;;;;;;;;;;;;;;;;2132139;27;20056;-48
2022/07/14 01:24:14;;;;;;;;;;;;;;;;;;2132014;27;20048;-45
2022/07/14 01:25:14;;;;;;;;;;;;;;;;;;2131925;27;19975;-46
2022/07/14 01:26:16;;;;;;;;;;;;;;;;;;2131895;27;19923;-47
2022/07/14 01:27:16;;;;;;;;;;;;;;;;;;2132075;27;19923;-46
2022/07/14 01:28:17;;;;;;;;;;;;;;;;;;2131937;27;19965;-46
2022/07/14 01:29:18;;;;;;;;;;;;;;;;;;2132019;27;19931;-46
2022/07/14 01:30:19;;;;;;;;;;;;;;;;;;2132069;27;19923;-48
2022/07/14 01:31:20;;;;;;;;;;;;;;;;;;2131752;27;19923;-46
2022/07/14 01:32:21;;;;;;;;;;;;;;;;;;2131942;27;20018;-45
2022/07/14 01:33:22;;;;;;;;;;;;;;;;;;2131942;27;20006;-45
2022/07/14 01:34:23;;;;;;;;;;;;;;;;;;2131990;27;20274;-46
2022/07/14 01:35:23;;;;;;;;;;;;;;;;;;2131764;27;20014;-46
2022/07/14 01:36:24;;;;;;;;;;;;;;;;;;2131287;27;19923;-46
2022/07/14 01:37:25;;;;;;;;;;;;;;;;;;2132006;27;19923;-48
2022/07/14 01:38:26;;;;;;;;;;;;;;;;;;2132101;27;20010;-49
2022/07/14 01:39:27;;;;;;;;;;;;;;;;;;2131831;27;20018;-48
2022/07/14 01:40:29;;;;;;;;;;;;;;;;;;2131999;27;19975;-47
2022/07/14 01:41:29;;;;;;;;;;;;;;;;;;2131751;27;20306;-46
2022/07/14 01:42:30;;;;;;;;;;;;;;;;;;2132287;27;19971;-47
2022/07/14 01:43:35;;;;;;;;;;;;;;;;;;2132254;27;19923;-46
2022/07/14 01:44:36;;;;;;;;;;;;;;;;;;2131944;27;19963;-46
2022/07/14 01:45:37;;;;;;;;;;;;;;;;;;2132310;27;19923;-47
2022/07/14 01:46:38;;;;;;;;;;;;;;;;;;2132310;27;19923;-46
2022/07/14 01:47:39;;;;;;;;;;;;;;;;;;2131914;27;19968;-46
2022/07/14 01:48:41;;;;;;;;;;;;;;;;;;2131784;27;19923;-46
2022/07/14 01:49:41;;;;;;;;;;;;;;;;;;2132020;27;19923;-45
2022/07/14 01:50:42;;;;;;;;;;;;;;;;;;2131823;27;19923;-45
2022/07/14 01:51:43;;;;;;;;;;;;;;;;;;2131957;27;20006;-48
2022/07/14 01:52:44;;;;;;;;;;;;;;;;;;2131955;27;19923;-49
2022/07/14 01:53:45;;;;;;;;;;;;;;;;;;2131763;27;19966;-48
2022/07/14 01:54:46;;;;;;;;;;;;;;;;;;2131820;27;19923;-48
2022/07/14 01:55:47;;;;;;;;;;;;;;;;;;2131993;27;19976;-45
2022/07/14 01:56:48;;;;;;;;;;;;;;;;;;2131864;27;20303;-45
2022/07/14 01:57:48;;;;;;;;;;;;;;;;;;2131735;27;20282;-45
2022/07/14 01:58:49;;;;;;;;;;;;;;;;;;2131743;27;20009;-45
2022/07/14 01:59:50;;;;;;;;;;;;;;;;;;2131777;27;19923;-48
2022/07/14 02:02:13;;;;;;;;;;;;;;;;;;2131671;27;19923;-45
2022/07/14 02:03:13;;;;;;;;;;;;;;;;;;2131889;27;19930;-45
2022/07/14 02:04:14;;;;;;;;;;;;;;;;;;2131990;27;19930;-48
2022/07/14 02:05:16;;;;;;;;;;;;;;;;;;2131744;27;19962;-48
2022/07/14 02:06:17;;;;;;;;;;;;;;;;;;2131646;27;20387;-47
2022/07/14 02:07:18;;;;;;;;;;;;;;;;;;2131706;27;19927;-49
2022/07/14 02:08:18;;;;;;;;;;;;;;;;;;2131845;27;19923;-47
2022/07/14 02:09:19;;;;;;;;;;;;;;;;;;2131903;27;20295;-49
2022/07/14 02:12:59;;;;;;;;;;;;;;;;;;2140630;27;20042;-45
2022/07/14 02:14:00;;;;;;;;;;;;;;;;;;2140336;27;20013;-46
2022/07/14 02:15:01;;;;;;;;;;;;;;;;;;2140635;27;19970;-50
2022/07/14 02:16:02;;;;;;;;;;;;;;;;;;2140904;27;19937;-46
2022/07/14 02:17:04;;;;;;;;;;;;;;;;;;2140517;27;19923;-48
2022/07/14 02:18:05;;;;;;;;;;;;;;;;;;2140336;27;19926;-47
2022/07/14 02:19:07;;;;;;;;;;;;;;;;;;2140678;27;20013;-46
2022/07/14 02:20:08;;;;;;;;;;;;;;;;;;2140318;27;20494;-47
2022/07/14 02:21:09;;;;;;;;;;;;;;;;;;2140326;27;20033;-45
2022/07/14 02:22:11;;;;;;;;;;;;;;;;;;2140536;27;20013;-46
2022/07/14 02:23:11;;;;;;;;;;;;;;;;;;2140993;27;20021;-46
2022/07/14 02:24:12;;;;;;;;;;;;;;;;;;2140415;27;19954;-46
2022/07/14 02:25:13;;;;;;;;;;;;;;;;;;2140658;27;20001;-45
2022/07/14 02:26:14;;;;;;;;;;;;;;;;;;2140408;27;19933;-47
2022/07/14 02:27:15;;;;;;;;;;;;;;;;;;2140288;27;19971;-48
2022/07/14 02:28:16;;;;;;;;;;;;;;;;;;2140242;27;20010;-48
2022/07/14 02:29:17;;;;;;;;;;;;;;;;;;2141172;27;20400;-48
2022/07/14 02:30:18;;;;;;;;;;;;;;;;;;2140424;27;19960;-48
2022/07/14 02:31:18;;;;;;;;;;;;;;;;;;2140811;27;19975;-47
2022/07/14 02:32:19;;;;;;;;;;;;;;;;;;2140128;27;19923;-48
2022/07/14 02:33:20;;;;;;;;;;;;;;;;;;2140366;27;20014;-48
2022/07/14 02:34:21;;;;;;;;;;;;;;;;;;2140379;27;19923;-45
2022/07/14 02:35:23;;;;;;;;;;;;;;;;;;2140349;27;20011;-47
2022/07/14 02:36:24;;;;;;;;;;;;;;;;;;2140044;27;20497;-47
2022/07/14 02:37:24;;;;;;;;;;;;;;;;;;2140448;27;19972;-49
2022/07/14 02:38:26;;;;;;;;;;;;;;;;;;2140373;27;19965;-49
2022/07/14 02:39:26;;;;;;;;;;;;;;;;;;2140683;27;20005;-48
2022/07/14 02:40:27;;;;;;;;;;;;;;;;;;2140587;27;19927;-46
2022/07/14 02:41:28;;;;;;;;;;;;;;;;;;2140266;27;19934;-47
2022/07/14 02:42:29;;;;;;;;;;;;;;;;;;2140241;27;20014;-48
2022/07/14 02:43:31;;;;;;;;;;;;;;;;;;2140171;27;19976;-48
2022/07/14 02:44:32;;;;;;;;;;;;;;;;;;2140189;27;20006;-47
2022/07/14 02:45:33;;;;;;;;;;;;;;;;;;2140712;27;20013;-45
2022/07/14 02:46:34;;;;;;;;;;;;;;;;;;2140753;27;19922;-47
2022/07/14 02:47:35;;;;;;;;;;;;;;;;;;2140593;27;19922;-45
2022/07/14 02:48:36;;;;;;;;;;;;;;;;;;2142289;27;19922;-48
2022/07/14 02:49:37;;;;;;;;;;;;;;;;;;2141882;27;19962;-47
2022/07/14 02:50:38;;;;;;;;;;;;;;;;;;2142034;27;20022;-46
2022/07/14 02:51:38;;;;;;;;;;;;;;;;;;2141570;27;19923;-46
2022/07/14 02:52:39;;;;;;;;;;;;;;;;;;2141716;27;19962;-45
2022/07/14 02:53:40;;;;;;;;;;;;;;;;;;2142061;27;20010;-47
2022/07/14 02:54:41;;;;;;;;;;;;;;;;;;2141739;27;19930;-49
2022/07/14 02:55:42;;;;;;;;;;;;;;;;;;2141771;27;20013;-47
2022/07/14 02:56:43;;;;;;;;;;;;;;;;;;2141283;27;19922;-48
2022/07/14 02:57:44;;;;;;;;;;;;;;;;;;2141487;27;20021;-47
2022/07/14 02:58:45;;;;;;;;;;;;;;;;;;2141654;27;19922;-48
2022/07/14 02:59:45;;;;;;;;;;;;;;;;;;2141521;27;19976;-48
2022/07/14 03:00:46;;;;;;;;;;;;;;;;;;2141861;27;19955;-47
2022/07/14 03:01:47;;;;;;;;;;;;;;;;;;2142067;27;20039;-48
2022/07/14 03:02:48;;;;;;;;;;;;;;;;;;2141509;27;20401;-48
2022/07/14 03:03:49;;;;;;;;;;;;;;;;;;2141531;27;20371;-48
2022/07/14 03:04:50;;;;;;;;;;;;;;;;;;2141902;27;19923;-49
2022/07/14 03:05:51;;;;;;;;;;;;;;;;;;2141845;27;19930;-46
2022/07/14 03:06:52;;;;;;;;;;;;;;;;;;2141809;27;19923;-47
2022/07/14 03:07:53;;;;;;;;;;;;;;;;;;2141516;27;20336;-48
2022/07/14 03:08:54;;;;;;;;;;;;;;;;;;2141457;27;19923;-49
2022/07/14 03:09:55;;;;;;;;;;;;;;;;;;2141445;27;19970;-47
2022/07/14 03:10:56;;;;;;;;;;;;;;;;;;2141247;27;20363;-49
2022/07/14 03:11:57;;;;;;;;;;;;;;;;;;2132857;27;20018;-48
2022/07/14 03:12:58;;;;;;;;;;;;;;;;;;2133265;27;19973;-50
2022/07/14 03:13:59;;;;;;;;;;;;;;;;;;2133228;27;20007;-48
2022/07/14 03:15:00;;;;;;;;;;;;;;;;;;2133115;27;19933;-45
2022/07/14 03:16:01;;;;;;;;;;;;;;;;;;2133109;27;19923;-46
2022/07/14 03:17:02;;;;;;;;;;;;;;;;;;2133043;27;19991;-45
2022/07/14 03:18:03;;;;;;;;;;;;;;;;;;2133204;27;19983;-47
2022/07/14 03:19:04;;;;;;;;;;;;;;;;;;2133692;27;19926;-47
2022/07/14 03:20:06;;;;;;;;;;;;;;;;;;2132961;27;19938;-49
2022/07/14 03:21:07;;;;;;;;;;;;;;;;;;2132861;27;20404;-51
2022/07/14 03:22:08;;;;;;;;;;;;;;;;;;2133128;27;19927;-50
2022/07/14 03:23:10;;;;;;;;;;;;;;;;;;2133175;27;19923;-45
2022/07/14 03:24:10;;;;;;;;;;;;;;;;;;2133367;27;19967;-50
2022/07/14 03:25:11;;;;;;;;;;;;;;;;;;2133034;27;19927;-49
2022/07/14 03:26:13;;;;;;;;;;;;;;;;;;2133329;27;20009;-49
2022/07/14 03:27:14;;;;;;;;;;;;;;;;;;2133279;27;19923;-50
2022/07/14 03:28:15;;;;;;;;;;;;;;;;;;2132674;27;19923;-48
2022/07/14 03:29:16;;;;;;;;;;;;;;;;;;2133476;27;20086;-47
2022/07/14 03:30:19;;;;;;;;;;;;;;;;;;2132822;27;19927;-48
2022/07/14 03:31:20;;;;;;;;;;;;;;;;;;2133227;27;20064;-47
2022/07/14 03:32:21;;;;;;;;;;;;;;;;;;2133654;27;20010;-44
2022/07/14 03:33:22;;;;;;;;;;;;;;;;;;2133161;27;20435;-48
2022/07/14 03:34:23;;;;;;;;;;;;;;;;;;2133168;27;19961;-48
2022/07/14 03:35:24;;;;;;;;;;;;;;;;;;2133110;27;20398;-48
2022/07/14 03:36:26;;;;;;;;;;;;;;;;;;2132812;27;19923;-46
2022/07/14 03:37:27;;;;;;;;;;;;;;;;;;2133266;27;19969;-47
2022/07/14 03:38:29;;;;;;;;;;;;;;;;;;2133008;27;20399;-46
2022/07/14 03:39:36;;;;;;;;;;;;;;;;;;2132994;27;20379;-49
2022/07/14 03:40:37;;;;;;;;;;;;;;;;;;2132862;27;19970;-48
2022/07/14 03:41:38;;;;;;;;;;;;;;;;;;2133158;27;20407;-45
2022/07/14 03:42:39;;;;;;;;;;;;;;;;;;2133070;27;19954;-46
2022/07/14 03:43:40;;;;;;;;;;;;;;;;;;2133363;27;20374;-45
2022/07/14 03:44:40;;;;;;;;;;;;;;;;;;2132967;27;19992;-48
2022/07/14 03:45:41;;;;;;;;;;;;;;;;;;2132814;27;20280;-48
2022/07/14 03:46:42;;;;;;;;;;;;;;;;;;2132706;27;19927;-48
2022/07/14 03:47:43;;;;;;;;;;;;;;;;;;2132857;27;19923;-48
2022/07/14 03:48:44;;;;;;;;;;;;;;;;;;2132504;27;20064;-47
2022/07/14 03:49:45;;;;;;;;;;;;;;;;;;2132678;27;20371;-48
2022/07/14 03:50:51;;;;;;;;;;;;;;;;;;2132888;27;19923;-49
2022/07/14 03:51:53;;;;;;;;;;;;;;;;;;2132558;27;20097;-48
2022/07/14 03:52:53;;;;;;;;;;;;;;;;;;2133576;27;19989;-48
2022/07/14 03:53:54;;;;;;;;;;;;;;;;;;2141725;27;19929;-48
2022/07/14 03:54:55;;;;;;;;;;;;;;;;;;2141404;27;19962;-45
2022/07/14 03:55:57;;;;;;;;;;;;;;;;;;2141327;27;19923;-45
2022/07/14 03:56:57;;;;;;;;;;;;;;;;;;2141554;27;19922;-45
2022/07/14 03:58:00;;;;;;;;;;;;;;;;;;2140991;27;19926;-45
2022/07/14 03:59:01;;;;;;;;;;;;;;;;;;2140966;27;19922;-49
2022/07/14 04:00:03;;;;;;;;;;;;;;;;;;2141156;27;19922;-51
2022/07/14 04:01:03;;;;;;;;;;;;;;;;;;2141503;27;19979;-48
2022/07/14 04:02:05;;;;;;;;;;;;;;;;;;2141616;27;19922;-44
2022/07/14 04:03:06;;;;;;;;;;;;;;;;;;2141497;27;19983;-49
2022/07/14 04:04:07;;;;;;;;;;;;;;;;;;2141047;27;20423;-51
2022/07/14 04:05:08;;;;;;;;;;;;;;;;;;2141786;27;19965;-48
2022/07/14 04:06:09;;;;;;;;;;;;;;;;;;2141934;27;19927;-45
2022/07/14 04:07:10;;;;;;;;;;;;;;;;;;2141921;27;20290;-44
2022/07/14 04:08:11;;;;;;;;;;;;;;;;;;2142143;27;19966;-48
2022/07/14 04:09:12;;;;;;;;;;;;;;;;;;2141413;27;20017;-49
2022/07/14 04:10:13;;;;;;;;;;;;;;;;;;2141437;27;19923;-44
2022/07/14 04:11:13;;;;;;;;;;;;;;;;;;2141047;27;19966;-45
2022/07/14 04:12:14;;;;;;;;;;;;;;;;;;2141428;27;19923;-48
2022/07/14 04:13:18;;;;;;;;;;;;;;;;;;2141457;27;19930;-46
2022/07/14 04:14:18;;;;;;;;;;;;;;;;;;2141871;27;19915;-49
2022/07/14 04:15:19;;;;;;;;;;;;;;;;;;2141585;27;20010;-49
2022/07/14 04:16:20;;;;;;;;;;;;;;;;;;2141086;27;19929;-48
2022/07/14 04:17:21;;;;;;;;;;;;;;;;;;2141318;27;19930;-49
2022/07/14 04:18:23;;;;;;;;;;;;;;;;;;2141223;27;20291;-46
2022/07/14 04:19:23;;;;;;;;;;;;;;;;;;2141440;27;20383;-45
2022/07/14 04:20:24;;;;;;;;;;;;;;;;;;2141338;27;19923;-46
2022/07/14 04:21:25;;;;;;;;;;;;;;;;;;2141069;27;19926;-46
2022/07/14 04:22:27;;;;;;;;;;;;;;;;;;2141070;27;19923;-45
2022/07/14 04:23:39;;;;;;;;;;;;;;;;;;2141474;27;19923;-45
2022/07/14 04:24:41;;;;;;;;;;;;;;;;;;2141320;27;19922;-50
2022/07/14 04:25:42;;;;;;;;;;;;;;;;;;2141254;27;20298;-45
2022/07/14 04:26:43;;;;;;;;;;;;;;;;;;2140997;27;20001;-44
2022/07/14 04:27:44;;;;;;;;;;;;;;;;;;2141768;27;20415;-49
2022/07/14 04:28:45;;;;;;;;;;;;;;;;;;2141328;27;20025;-43
2022/07/14 04:29:46;;;;;;;;;;;;;;;;;;2141545;27;20347;-43
2022/07/14 04:30:47;;;;;;;;;;;;;;;;;;2140987;27;20021;-43
2022/07/14 04:31:48;;;;;;;;;;;;;;;;;;2141253;27;19977;-43
2022/07/14 04:32:50;;;;;;;;;;;;;;;;;;2141950;27;19923;-47
2022/07/14 04:33:51;;;;;;;;;;;;;;;;;;2141192;27;19982;-46
2022/07/14 04:34:52;;;;;;;;;;;;;;;;;;2141668;27;19962;-44
2022/07/14 04:35:53;;;;;;;;;;;;;;;;;;2141398;27;19995;-49
2022/07/14 04:36:54;;;;;;;;;;;;;;;;;;2141402;27;19923;-43
2022/07/14 04:37:55;;;;;;;;;;;;;;;;;;2141681;27;19944;-44
2022/07/14 04:38:57;;;;;;;;;;;;;;;;;;2141103;27;20001;-44
2022/07/14 04:39:57;;;;;;;;;;;;;;;;;;2140947;27;19960;-44
2022/07/14 04:41:00;;;;;;;;;;;;;;;;;;2141332;27;19927;-47
2022/07/14 04:42:01;;;;;;;;;;;;;;;;;;2140886;27;20006;-47
2022/07/14 04:43:02;;;;;;;;;;;;;;;;;;2141044;27;19965;-49
2022/07/14 04:44:03;;;;;;;;;;;;;;;;;;2141455;27;19952;-44
2022/07/14 04:45:04;;;;;;;;;;;;;;;;;;2141500;27;19931;-44
2022/07/14 04:46:05;;;;;;;;;;;;;;;;;;2141171;27;20017;-48
2022/07/14 04:48:26;;;;;;;;;;;;;;;;;;2140927;27;20013;-47
2022/07/14 04:52:05;;;;;;;;;;;;;;;;;;2141250;27;19926;-47
2022/07/14 04:53:07;;;;;;;;;;;;;;;;;;2141201;27;19923;-44
2022/07/14 04:54:07;;;;;;;;;;;;;;;;;;2141094;27;20261;-48
2022/07/14 04:55:09;;;;;;;;;;;;;;;;;;2141367;27;19998;-46
2022/07/14 04:56:09;;;;;;;;;;;;;;;;;;2140946;27;20013;-44
2022/07/14 04:57:10;;;;;;;;;;;;;;;;;;2141186;27;19929;-50
2022/07/14 04:58:11;;;;;;;;;;;;;;;;;;2141585;27;20058;-48
2022/07/14 04:59:12;;;;;;;;;;;;;;;;;;2140883;27;19923;-50
2022/07/14 05:00:14;;;;;;;;;;;;;;;;;;2141194;27;19942;-51
2022/07/14 05:01:15;;;;;;;;;;;;;;;;;;2141211;27;20328;-44
2022/07/14 05:02:16;;;;;;;;;;;;;;;;;;2140947;27;19923;-48
2022/07/14 05:03:17;;;;;;;;;;;;;;;;;;2141113;27;19922;-45
2022/07/14 05:04:18;;;;;;;;;;;;;;;;;;2140921;27;20041;-45
2022/07/14 05:05:20;;;;;;;;;;;;;;;;;;2140861;27;20375;-44
2022/07/14 05:06:20;;;;;;;;;;;;;;;;;;2141242;27;19987;-48
2022/07/14 05:07:21;;;;;;;;;;;;;;;;;;2141709;27;19977;-47
2022/07/14 05:08:23;;;;;;;;;;;;;;;;;;2141524;27;19966;-48
2022/07/14 05:09:25;;;;;;;;;;;;;;;;;;2140596;27;20359;-52
2022/07/14 05:10:25;;;;;;;;;;;;;;;;;;2140442;27;20339;-45
2022/07/14 05:11:27;;;;;;;;;;;;;;;;;;2135562;27;20023;-44
2022/07/14 05:12:30;;;;;;;;;;;;;;;;;;2132110;27;20378;-44
2022/07/14 05:13:30;;;;;;;;;;;;;;;;;;2132250;27;19931;-44
2022/07/14 05:14:31;;;;;;;;;;;;;;;;;;2132310;27;20026;-51
2022/07/14 05:15:32;;;;;;;;;;;;;;;;;;2132691;27;19968;-49
2022/07/14 05:16:33;;;;;;;;;;;;;;;;;;2132578;27;19930;-49
2022/07/14 05:17:55;;;;;;;;;;;;;;;;;;2132311;27;19975;-48
2022/07/14 05:18:56;;;;;;;;;;;;;;;;;;2132029;27;19972;-48
2022/07/14 05:19:57;;;;;;;;;;;;;;;;;;2132293;27;20071;-44
2022/07/14 05:20:58;;;;;;;;;;;;;;;;;;2132750;27;20343;-44
2022/07/14 05:22:02;;;;;;;;;;;;;;;;;;2132772;27;19930;-49
2022/07/14 05:23:02;;;;;;;;;;;;;;;;;;2132000;27;20019;-49
2022/07/14 05:24:03;;;;;;;;;;;;;;;;;;2133056;27;20378;-49
2022/07/14 05:25:04;;;;;;;;;;;;;;;;;;2132615;27;20395;-50
2022/07/14 05:26:05;;;;;;;;;;;;;;;;;;2132389;27;19967;-46
2022/07/14 05:27:06;;;;;;;;;;;;;;;;;;2132247;27;19991;-45
2022/07/14 05:28:07;;;;;;;;;;;;;;;;;;2132179;27;20018;-45
2022/07/14 05:29:08;;;;;;;;;;;;;;;;;;2132247;27;20399;-49
2022/07/14 05:30:09;;;;;;;;;;;;;;;;;;2132832;27;19927;-44
2022/07/14 05:31:09;;;;;;;;;;;;;;;;;;2132211;27;20079;-50
2022/07/14 05:32:12;;;;;;;;;;;;;;;;;;2131786;27;19923;-45
2022/07/14 05:33:13;;;;;;;;;;;;;;;;;;2140853;27;19956;-45
2022/07/14 05:34:14;;;;;;;;;;;;;;;;;;2140757;27;19996;-44
2022/07/14 05:35:15;;;;;;;;;;;;;;;;;;2141364;27;19934;-45
2022/07/14 05:36:16;;;;;;;;;;;;;;;;;;2140955;27;20067;-50
2022/07/14 05:37:17;;;;;;;;;;;;;;;;;;2141345;27;19961;-44
2022/07/14 05:38:17;;;;;;;;;;;;;;;;;;2141090;27;20359;-49
2022/07/14 05:39:18;;;;;;;;;;;;;;;;;;2141407;27;19937;-51
2022/07/14 05:40:20;;;;;;;;;;;;;;;;;;2140929;27;19969;-48
2022/07/14 05:41:22;;;;;;;;;;;;;;;;;;2140931;27;20032;-44
2022/07/14 05:42:22;;;;;;;;;;;;;;;;;;2141910;27;19986;-50
2022/07/14 05:43:23;;;;;;;;;;;;;;;;;;2140704;27;19987;-44
2022/07/14 05:44:29;;;;;;;;;;;;;;;;;;2140598;27;19927;-44
2022/07/14 05:45:30;;;;;;;;;;;;;;;;;;2140251;27;20010;-45
2022/07/14 05:46:31;;;;;;;;;;;;;;;;;;2136936;27;20022;-49
2022/07/14 05:47:32;;;;;;;;;;;;;;;;;;2132554;27;19930;-48
2022/07/14 05:48:33;;;;;;;;;;;;;;;;;;2131965;27;20001;-45
2022/07/14 05:49:35;;;;;;;;;;;;;;;;;;2131794;27;19934;-44
2022/07/14 05:50:36;;;;;;;;;;;;;;;;;;2132144;27;19998;-46
2022/07/14 05:51:37;;;;;;;;;;;;;;;;;;2132128;27;19923;-49
2022/07/14 05:52:38;;;;;;;;;;;;;;;;;;2132425;27;19935;-45
2022/07/14 05:53:39;;;;;;;;;;;;;;;;;;2132432;27;19935;-47
2022/07/14 05:54:39;;;;;;;;;;;;;;;;;;2132235;27;19930;-49
2022/07/14 05:55:40;;;;;;;;;;;;;;;;;;2132175;27;19923;-48
2022/07/14 05:56:41;;;;;;;;;;;;;;;;;;2131944;27;19923;-48
2022/07/14 05:57:42;;;;;;;;;;;;;;;;;;2132206;27;19930;-47
2022/07/14 05:58:44;;;;;;;;;;;;;;;;;;2131763;27;20425;-48
2022/07/14 05:59:45;;;;;;;;;;;;;;;;;;2132114;27;20021;-47
2022/07/14 06:00:48;;;;;;;;;;;;;;;;;;2132105;27;19923;-45
2022/07/14 06:01:48;;;;;;;;;;;;;;;;;;2132303;27;20014;-44
2022/07/14 06:02:50;;;;;;;;;;;;;;;;;;2132404;27;19967;-48
2022/07/14 06:03:57;;;;;;;;;;;;;;;;;;2132202;27;20388;-44
2022/07/14 06:04:58;;;;;;;;;;;;;;;;;;2132250;27;19957;-51
2022/07/14 06:05:59;;;;;;;;;;;;;;;;;;2131783;27;20311;-48
2022/07/14 06:07:00;;;;;;;;;;;;;;;;;;2131931;27;19950;-45
2022/07/14 06:08:01;;;;;;;;;;;;;;;;;;2132169;27;20391;-45
2022/07/14 06:09:03;;;;;;;;;;;;;;;;;;2131636;27;20422;-44
2022/07/14 06:10:03;;;;;;;;;;;;;;;;;;2131900;27;19923;-44
2022/07/14 06:11:04;;;;;;;;;;;;;;;;;;2131653;27;19927;-45
2022/07/14 06:12:06;;;;;;;;;;;;;;;;;;2132307;27;19927;-45
2022/07/14 06:13:07;;;;;;;;;;;;;;;;;;2132538;27;20050;-44
2022/07/14 06:14:14;;;;;;;;;;;;;;;;;;2132646;27;20006;-49
2022/07/14 06:15:15;;;;;;;;;;;;;;;;;;2132069;27;20009;-44
2022/07/14 06:16:16;;;;;;;;;;;;;;;;;;2131854;27;20011;-45
2022/07/14 06:17:17;;;;;;;;;;;;;;;;;;2131973;27;20295;-53
2022/07/14 06:18:19;;;;;;;;;;;;;;;;;;2132340;27;19970;-49
2022/07/14 06:19:20;;;;;;;;;;;;;;;;;;2131867;27;19923;-44
2022/07/14 06:20:21;;;;;;;;;;;;;;;;;;2132204;27;19959;-44
2022/07/14 06:21:22;;;;;;;;;;;;;;;;;;2132024;27;19970;-48
2022/07/14 06:22:23;;;;;;;;;;;;;;;;;;2132150;27;20014;-47
2022/07/14 06:23:24;;;;;;;;;;;;;;;;;;2132377;27;20010;-48
2022/07/14 06:24:25;;;;;;;;;;;;;;;;;;2132533;27;20002;-44
2022/07/14 06:25:26;;;;;;;;;;;;;;;;;;2131707;27;20291;-44
2022/07/14 06:26:27;;;;;;;;;;;;;;;;;;2132036;27;19946;-44
2022/07/14 06:27:28;;;;;;;;;;;;;;;;;;2132895;27;19927;-44
2022/07/14 06:28:29;;;;;;;;;;;;;;;;;;2132194;27;19978;-44
2022/07/14 06:29:29;;;;;;;;;;;;;;;;;;2132148;27;20002;-44
2022/07/14 06:30:30;;;;;;;;;;;;;;;;;;2131950;27;19923;-49
2022/07/14 06:31:34;;;;;;;;;;;;;;;;;;2131942;27;20450;-44
2022/07/14 06:32:34;;;;;;;;;;;;;;;;;;2131849;27;20268;-45
2022/07/14 06:33:35;;;;;;;;;;;;;;;;;;2131923;27;20198;-45
2022/07/14 06:34:37;;;;;;;;;;;;;;;;;;2132188;27;20450;-51
2022/07/14 06:35:38;;;;;;;;;;;;;;;;;;2131999;27;20365;-45
2022/07/14 06:36:58;;;;;;;;;;;;;;;;;;2132521;27;19923;-48
2022/07/14 06:38:00;;;;;;;;;;;;;;;;;;2132336;27;20428;-52
2022/07/14 06:39:07;;;;;;;;;;;;;;;;;;2131626;27;19927;-46
2022/07/14 06:40:08;;;;;;;;;;;;;;;;;;2131574;27;19930;-44
2022/07/14 06:41:09;;;;;;;;;;;;;;;;;;2131908;27;19927;-48
2022/07/14 06:42:10;;;;;;;;;;;;;;;;;;2137292;27;19922;-50
2022/07/14 06:43:11;;;;;;;;;;;;;;;;;;2140608;27;19930;-46
2022/07/14 06:44:13;;;;;;;;;;;;;;;;;;2140729;27;19975;-51
2022/07/14 06:45:14;;;;;;;;;;;;;;;;;;2140629;27;19970;-46
2022/07/14 06:46:15;;;;;;;;;;;;;;;;;;2140565;27;19991;-50
2022/07/14 06:47:16;;;;;;;;;;;;;;;;;;2140289;27;19923;-49
2022/07/14 06:48:17;;;;;;;;;;;;;;;;;;2140340;27;20006;-50
2022/07/14 06:49:18;;;;;;;;;;;;;;;;;;2140370;27;20062;-53
2022/07/14 06:50:19;;;;;;;;;;;;;;;;;;2140941;27;20026;-44
2022/07/14 06:51:20;;;;;;;;;;;;;;;;;;2140209;27;20419;-45
2022/07/14 06:52:21;;;;;;;;;;;;;;;;;;2140381;27;19963;-48
2022/07/14 06:53:21;;;;;;;;;;;;;;;;;;2140946;27;20006;-44
2022/07/14 06:54:22;;;;;;;;;;;;;;;;;;2140280;27;19930;-50
2022/07/14 06:55:23;;;;;;;;;;;;;;;;;;2140307;27;20007;-49
2022/07/14 06:56:24;;;;;;;;;;;;;;;;;;2140818;27;19923;-47
2022/07/14 06:57:25;;;;;;;;;;;;;;;;;;2140290;27;20276;-51
2022/07/14 06:58:26;;;;;;;;;;;;;;;;;;2140788;27;19923;-49
2022/07/14 06:59:28;;;;;;;;;;;;;;;;;;2140585;27;20446;-46
2022/07/14 07:00:29;;;;;;;;;;;;;;;;;;2140557;27;20018;-47
2022/07/14 07:01:30;;;;;;;;;;;;;;;;;;2140596;27;19923;-45
2022/07/14 07:02:31;;;;;;;;;;;;;;;;;;2140915;27;19911;-49
2022/07/14 07:03:33;;;;;;;;;;;;;;;;;;2140458;27;19954;-44
2022/07/14 07:04:34;;;;;;;;;;;;;;;;;;2140054;27;19995;-45
2022/07/14 07:06:54;;;;;;;;;;;;;;;;;;2140542;27;20013;-46
2022/07/14 07:07:56;;;;;;;;;;;;;;;;;;2140610;27;19927;-46